x

La Perouse Bank (46206) Wave Buoy

1:00pm - Fri 17th Nov 2017 All times are PST. -8 hours from GMT.

  • Sig Wave height 6.2ft
  • Peak Period 8s
  • Wind
    7mph, 9mph gusts
  • Sea Temp 51°f
  • Air Temp 48°f
  • Sea Pressure 1019.3mb
  • La Perouse Bank
  • La Perouse Bank

More Historic Weather Station data

Upgrade to MSW Pro to gain access to the past 30 days of data for over 8000 Wavebouys and Weather Stations around the globe.

Join

Comparision Forecast

View Surf forecast
   
Fri 11/17 1:00pm 6ft 8s 7 9 mph 1019.3mb 51f 48f
12:00pm 6ft 8s 9 11 mph 1018.5mb 51f 48f
11:00am 5.5ft 8s 9 11 mph 1017.8mb 51f 48f
10:00am 6ft 8s 9 13 mph 1016.8mb 51f 48f
9:00am 6ft 7s 13 16 mph 1015.8mb 51f 47f
8:00am 6ft 7s 9 11 mph 1014.6mb 50f 47f
7:00am 6ft 9s 13 20 mph 1013.3mb 50f 47f
6:00am 6ft 10s 11 13 mph 1012.3mb 50f 47f
5:00am 6.5ft 8s 11 16 mph 1011.3mb 50f 46f
4:00am 6ft 9s 20 27 mph 1010.3mb 50f 45f
3:00am 6.5ft 9s 7 9 mph 1009.9mb 50f 45f
2:00am 6.5ft 9s 20 27 mph 1008.7mb 50f 46f
1:00am 5.5ft 8s 11 16 mph 1007.8mb 50f 47f
12:00am 5.5ft 8s 13 16 mph 1006.8mb 50f 47f
Thu 11/16 11:00pm 6ft 9s 11 16 mph 1006.1mb 50f 47f
10:00pm 6ft 8s 20 27 mph 1005.4mb 49f 45f
9:00pm 7ft 8s 13 18 mph 1004.6mb 49f 46f
8:00pm 6.5ft 10s 13 18 mph 1004mb 50f 46f
7:00pm 7ft 10s 13 18 mph 1003.5mb 50f 46f
6:00pm 7ft 10s 11 13 mph 1003.1mb 51f 46f
5:00pm 7ft 8s 4 7 mph 1002.5mb 51f 46f
4:00pm 6.5ft 8s 7 9 mph 1001.7mb 51f 46f
3:00pm 6ft 9s 11 13 mph 1000.8mb 51f 46f
2:00pm 6ft 8s 13 22 mph 1000.6mb 51f 45f
1:00pm 6ft 10s 11 13 mph 1000.3mb 51f 47f
12:00pm 6.5ft 9s 9 13 mph 1000.1mb 51f 48f
11:00am 7ft 9s 7 11 mph 1000.5mb 51f 46f
10:00am 7ft 9s 18 22 mph 999.7mb 51f 46f
9:00am 7ft 10s 18 22 mph 999.5mb 51f 45f
8:00am 7.5ft 8s 16 20 mph 999.4mb 51f 46f
7:00am 8.5ft 8s 7 11 mph 998.9mb 51f 45f
6:00am 9ft 9s 9 13 mph 998.9mb 51f 46f
5:00am 9ft 8s 16 22 mph 998.6mb 51f 46f
4:00am 10.5ft 8s 7 11 mph 998.3mb 51f 46f
3:00am 10ft 9s 11 16 mph 998.5mb 51f 46f
2:00am 10ft 9s 11 13 mph 997.9mb 51f 49f
1:00am 10.5ft 10s 11 13 mph 997.5mb 51f 49f
12:00am 11.5ft 9s 11 13 mph 997.3mb 51f 48f
Wed 11/15 11:00pm 12ft 10s 9 11 mph 996.9mb 51f 48f
10:00pm 11.5ft 10s 9 13 mph 996.8mb 51f 48f
9:00pm 11.5ft 10s 4 9 mph 996.7mb 51f 47f
8:00pm 12ft 10s 13 18 mph 996.6mb 51f 48f
7:00pm 11ft 11s 18 22 mph 996.5mb 51f 48f
6:00pm 12ft 10s 20 25 mph 996.6mb 50f 49f
5:00pm 12.5ft 11s 13 18 mph 997.1mb 50f 50f
4:00pm 13ft 11s 13 18 mph 997.3mb 50f 50f
3:00pm 13.5ft 10s 16 20 mph 997.5mb 50f 50f
2:00pm 14ft 10s 16 20 mph 997.7mb 50f 51f
1:00pm 14ft 11s 18 22 mph 997.4mb 50f 51f
12:00pm 14.5ft 11s 22 31 mph 997.2mb 50f 49f
11:00am 14.5ft 10s 25 31 mph 996.9mb 50f 50f
10:00am 15.5ft 10s 18 29 mph 997.3mb 50f 50f
9:00am 15ft 11s 22 29 mph 997.4mb 50f 48f
8:00am 14ft 10s 18 27 mph 997.5mb 50f 48f
7:00am 14ft 10s 22 29 mph 997.5mb 50f 49f
6:00am 15.5ft 12s 16 27 mph 998mb 50f 49f
5:00am 15ft 11s 13 18 mph 998.3mb 50f 47f
4:00am 12.5ft 10s 18 22 mph 997.7mb 50f 49f
3:00am 14ft 11s 16 25 mph 998.1mb 50f 48f
2:00am 15ft 11s 13 18 mph 998.1mb 50f 49f
1:00am 14ft 11s 16 22 mph 998.4mb 50f 48f
12:00am 13.5ft 11s 20 27 mph 998.5mb 50f 48f
Tue 11/14 11:00pm 13.5ft 10s 20 31 mph 998.5mb 50f 49f
10:00pm 14ft 10s 22 31 mph 999mb 50f 50f
9:00pm 14ft 10s 22 27 mph 999.7mb 50f 49f
8:00pm 14ft 9s 22 27 mph 999.3mb 50f 49f
7:00pm 13.5ft 9s 25 31 mph 1000.5mb 50f 50f
6:00pm 12ft 9s 18 22 mph 1001.3mb 50f 50f
5:00pm 12.5ft 9s 18 22 mph 1001.8mb 50f 49f
4:00pm 12ft 9s 16 20 mph 1002.5mb 50f 50f
3:00pm 11ft 8s 22 31 mph 1003.1mb 50f 50f
2:00pm 10ft 9s 18 25 mph 1004.1mb 50f 50f
1:00pm 9.5ft 10s 16 18 mph 1004.7mb 50f 49f
12:00pm 10.5ft 8s 13 16 mph 1005.3mb 50f 47f
11:00am 10ft 10s 18 25 mph 1006.4mb 50f 49f
10:00am 9.5ft 10s 16 20 mph 1006.4mb 50f 50f
9:00am 11.5ft 8s 11 13 mph 1006.9mb 50f 48f
8:00am 11ft 10s 13 16 mph 1006.6mb 50f 49f
7:00am 11ft 8s 18 25 mph 1006.3mb 50f 49f
6:00am 12ft 9s 20 25 mph 1006.5mb 50f 49f
5:00am 11ft 8s 16 18 mph 1006.6mb 50f 47f
4:00am 10.5ft 9s 22 27 mph 1006.1mb 50f 50f
3:00am 11ft 9s 18 22 mph 1006.6mb 50f 48f
2:00am 12ft 10s 29 38 mph 1006.6mb 50f 50f
1:00am 11.5ft 10s 27 31 mph 1006.7mb 50f 51f
12:00am 12.5ft 10s 22 29 mph 1007.1mb 50f 51f
Mon 11/13 11:00pm 14ft 12s 18 22 mph 1007.3mb 50f 50f